Central Virginia Flyers


Central Virginia Flyers is a 10 member flying club based in Richmond, VA at Hanover County Airport (KOFP). We own N787AT, a 1977 Cessna 172 with 180hp conversion. If you are interested in membership, please contact Brenton at [email protected]


Aviation Digital Data Service (ADDS)

Output produced by METARs form (1805 UTC 14 December 2018)
found at http://aviationweather.gov/metar/data/
 
KOFP 141754Z AUTO 29004KT 5SM HZ FEW046 OVC100 05/02 A3035 RMK AO2 SLP278 T00500017 10056 20006 56022
KRIC 141754Z 34005KT 6SM -RA BR FEW050 OVC095 06/03 A3032 RMK AO2 RAB25 SLP274 4/001 P0000 60000 T00560033 10061 20006 56024
KRIC 141730Z 1418/1518 02004KT 5SM -RA OVC080 
     FM142000 04006KT 3SM -RA OVC025 
     FM142300 05007KT 2SM RA BR OVC010 
     FM150100 08005KT 1SM RA BR OVC004 
     FM151200 02005KT 2SM -RA BR OVC003